createdAt,value
2018-05-25T00:04:00.756Z,101091
2018-05-25T00:09:06.120Z,101094
2018-05-25T00:14:10.561Z,101102
2018-05-25T00:19:15.159Z,101098
2018-05-25T00:24:19.020Z,101097
2018-05-25T00:29:23.461Z,101097
2018-05-25T00:34:26.947Z,101100
2018-05-25T00:39:31.391Z,101109
2018-05-25T00:44:35.894Z,101107
2018-05-25T00:49:39.746Z,101107
2018-05-25T00:55:01.421Z,101101
2018-05-25T01:00:05.280Z,101093
2018-05-25T01:05:09.143Z,101093
2018-05-25T01:10:13.006Z,101094
2018-05-25T01:15:17.243Z,101093
2018-05-25T01:20:20.739Z,101100
2018-05-25T01:25:24.970Z,101096
2018-05-25T01:30:28.063Z,101097
2018-05-25T01:35:32.510Z,101089
2018-05-25T01:40:35.604Z,101087
2018-05-25T01:45:39.470Z,101082
2018-05-25T01:50:42.962Z,101080
2018-05-25T01:55:48.565Z,101074
2018-05-25T02:00:53.009Z,101066
2018-05-25T02:05:56.094Z,101073
2018-05-25T02:10:59.954Z,101076
2018-05-25T02:16:03.451Z,101069
2018-05-25T02:21:07.679Z,101082
2018-05-25T02:26:12.136Z,101076
2018-05-25T02:31:16.367Z,101068
2018-05-25T02:36:20.234Z,101066
2018-05-25T02:41:23.742Z,101065
2018-05-25T02:46:27.615Z,101065
2018-05-25T02:51:31.103Z,101072
2018-05-25T02:56:34.199Z,101076
2018-05-25T03:01:37.298Z,101078
2018-05-25T03:06:41.175Z,101075
2018-05-25T03:11:45.624Z,101075
2018-05-25T03:16:49.120Z,101078
2018-05-25T03:21:53.349Z,101072
2018-05-25T03:26:56.853Z,101072
2018-05-25T03:32:01.449Z,101075
2018-05-25T03:37:05.921Z,101044
2018-05-25T03:42:10.370Z,101085
2018-05-25T03:47:14.225Z,101084
2018-05-25T03:52:18.664Z,101088
2018-05-25T03:57:23.109Z,101084
2018-05-25T04:02:27.564Z,101097
2018-05-25T04:07:31.446Z,101104
2018-05-25T04:12:34.543Z,101105
2018-05-25T04:17:38.467Z,101111
2018-05-25T04:22:42.331Z,101113
2018-05-25T04:27:46.769Z,101114
2018-05-25T04:32:51.366Z,101112
2018-05-25T04:37:54.468Z,101115
2018-05-25T04:42:57.582Z,101118
2018-05-25T04:48:00.760Z,101120
2018-05-25T04:53:03.937Z,101122
2018-05-25T04:58:08.180Z,101127
2018-05-25T05:03:12.638Z,101133
2018-05-25T05:08:16.166Z,101129
2018-05-25T05:13:20.778Z,101119
2018-05-25T05:18:25.012Z,101118
2018-05-25T05:23:29.479Z,101126
2018-05-25T05:28:34.063Z,101124
2018-05-25T05:33:38.728Z,101127
2018-05-25T05:38:43.114Z,101126
2018-05-25T05:43:47.569Z,101128
2018-05-25T05:48:50.662Z,101116
2018-05-25T05:53:53.759Z,101125
2018-05-25T05:58:58.207Z,101132
2018-05-25T06:04:01.687Z,101131
2018-05-25T06:09:06.129Z,101141
2018-05-25T06:14:10.565Z,101143
2018-05-25T06:19:15.013Z,101155
2018-05-25T06:24:19.248Z,101149
2018-05-25T06:29:22.350Z,101154
2018-05-25T06:34:26.797Z,101148
2018-05-25T06:39:29.900Z,101144
2018-05-25T06:44:33.775Z,101156
2018-05-25T06:49:38.383Z,101168
2018-05-25T06:54:41.478Z,101159
2018-05-25T06:59:44.962Z,101162
2018-05-25T07:04:48.822Z,101166
2018-05-25T07:09:52.327Z,101167
2018-05-25T07:14:55.831Z,101164
2018-05-25T07:19:58.913Z,101169
2018-05-25T07:25:02.774Z,101179
2018-05-25T07:30:07.003Z,101181
2018-05-25T07:35:10.859Z,101177
2018-05-25T07:40:15.298Z,101188
2018-05-25T07:45:18.397Z,101193
2018-05-25T07:50:22.260Z,101191
2018-05-25T07:55:25.346Z,101184
2018-05-25T08:00:28.851Z,101182
2018-05-25T08:05:33.089Z,101178
2018-05-25T08:10:36.187Z,101194
2018-05-25T08:15:39.282Z,101207
2018-05-25T08:20:43.732Z,101208
2018-05-25T08:25:49.121Z,101208
2018-05-25T08:30:52.229Z,101210
2018-05-25T08:35:56.680Z,101195
2018-05-25T08:41:01.283Z,101194
2018-05-25T08:46:04.780Z,101217
2018-05-25T08:51:09.026Z,101208
2018-05-25T08:56:12.133Z,101237
2018-05-25T09:01:16.058Z,101229
2018-05-25T09:06:20.427Z,101226
2018-05-25T09:11:23.526Z,101222
2018-05-25T09:16:27.026Z,101219
2018-05-25T09:21:31.630Z,101217
2018-05-25T09:26:34.727Z,101213
2018-05-25T09:31:39.171Z,101205
2018-05-25T09:36:42.659Z,101202
2018-05-25T09:41:45.759Z,101204
2018-05-25T09:46:49.618Z,101207
2018-05-25T09:51:54.078Z,101204
2018-05-25T09:57:01.946Z,101194
2018-05-25T10:02:05.022Z,101195
2018-05-25T10:07:08.512Z,101192
2018-05-25T10:12:12.945Z,101191
2018-05-25T10:17:17.390Z,101186
2018-05-25T10:22:20.869Z,101183
2018-05-25T10:27:23.975Z,101174
2018-05-25T10:32:27.068Z,101180
2018-05-25T10:37:30.152Z,101168
2018-05-25T10:42:34.374Z,101158
2018-05-25T10:47:37.463Z,101154
2018-05-25T10:52:40.556Z,101158
2018-05-25T10:57:43.629Z,101143
2018-05-25T11:02:48.070Z,101149
2018-05-25T11:07:52.658Z,101145
2018-05-25T11:12:56.884Z,101137
2018-05-25T11:17:59.976Z,101132
2018-05-25T11:23:03.453Z,101132
2018-05-25T11:28:07.298Z,101137
2018-05-25T11:33:11.894Z,101131
2018-05-25T11:38:14.978Z,101126
2018-05-25T11:43:19.198Z,101114
2018-05-25T11:48:23.281Z,101119
2018-05-25T11:53:26.757Z,101111
2018-05-25T11:58:30.612Z,101100
2018-05-25T12:03:34.095Z,101098
2018-05-25T12:08:37.179Z,101102
2018-05-25T12:13:41.025Z,101100
2018-05-25T12:18:44.111Z,101107
2018-05-25T12:23:48.339Z,101102
2018-05-25T12:28:52.188Z,101102
2018-05-25T12:33:56.043Z,101107
2018-05-25T12:38:59.524Z,101103
2018-05-25T12:44:03.371Z,101101
2018-05-25T12:49:06.849Z,101107
2018-05-25T12:54:10.330Z,101105
2018-05-25T12:59:13.418Z,101104
2018-05-25T13:04:16.503Z,101098
2018-05-25T13:09:19.586Z,101102
2018-05-25T13:14:23.443Z,101101
2018-05-25T13:19:26.524Z,101099
2018-05-25T13:24:30.374Z,101094
2018-05-25T13:29:34.235Z,101088
2018-05-25T13:34:37.715Z,101082
2018-05-25T13:39:41.562Z,101081
2018-05-25T13:44:44.654Z,101084
2018-05-25T13:49:48.136Z,101073
2018-05-25T13:54:51.619Z,101075
2018-05-25T13:59:55.107Z,101075
2018-05-25T14:04:58.966Z,101068
2018-05-25T14:10:03.405Z,101069
2018-05-25T14:15:07.255Z,101067
2018-05-25T14:20:15.462Z,101066
2018-05-25T14:25:20.015Z,101063
2018-05-25T14:30:24.251Z,101072
2018-05-25T14:35:28.440Z,101066
2018-05-25T14:40:31.922Z,101075
2018-05-25T14:45:36.375Z,101072
2018-05-25T14:50:39.453Z,101072
2018-05-25T14:55:42.936Z,101075
2018-05-25T15:00:46.411Z,101069
2018-05-25T15:05:51.014Z,101066
2018-05-25T15:10:55.243Z,101066
2018-05-25T15:15:59.835Z,101061
2018-05-25T15:21:03.545Z,101057
2018-05-25T15:26:06.660Z,101053
2018-05-25T15:31:11.107Z,101055
2018-05-25T15:36:15.543Z,101045
2018-05-25T15:41:19.022Z,101050
2018-05-25T15:46:22.917Z,101055
2018-05-25T15:51:26.370Z,101044
2018-05-25T15:56:29.504Z,101042
2018-05-25T16:01:32.963Z,101042
2018-05-25T16:06:36.049Z,101041
2018-05-25T16:11:40.276Z,101037
2018-05-25T16:16:43.373Z,101038
2018-05-25T16:21:47.597Z,101031
2018-05-25T16:26:50.692Z,101026
2018-05-25T16:31:53.786Z,101023
2018-05-25T16:36:58.234Z,101018
2018-05-25T16:42:02.848Z,101017
2018-05-25T16:47:05.942Z,101011
2018-05-25T16:52:10.166Z,101010
2018-05-25T16:57:13.263Z,101007
2018-05-25T17:02:17.690Z,101006
2018-05-25T17:07:21.538Z,101002
2018-05-25T17:12:25.377Z,101010
2018-05-25T17:17:29.611Z,101013
2018-05-25T17:22:32.934Z,101016
2018-05-25T17:27:37.438Z,101014
2018-05-25T17:32:40.531Z,101015
2018-05-25T17:37:44.383Z,101016
2018-05-25T17:42:48.820Z,101016
2018-05-25T17:47:51.898Z,101024
2018-05-25T17:52:56.330Z,101022
2018-05-25T17:57:59.413Z,101024
2018-05-25T18:03:03.638Z,101032
2018-05-25T18:08:08.070Z,101038
2018-05-25T18:13:11.929Z,101044
2018-05-25T18:18:16.525Z,101047
2018-05-25T18:23:19.605Z,101048
2018-05-25T18:28:23.826Z,101050
2018-05-25T18:33:26.920Z,101060
2018-05-25T18:38:31.512Z,101063
2018-05-25T18:43:34.598Z,101064
2018-05-25T18:48:39.043Z,101061
2018-05-25T18:53:43.635Z,101069
2018-05-25T18:58:48.089Z,101070
2018-05-25T19:03:51.576Z,101073
2018-05-25T19:08:54.657Z,101082
2018-05-25T19:13:58.519Z,101084
2018-05-25T19:19:02.003Z,101081
2018-05-25T19:24:06.602Z,101086
2018-05-25T19:29:09.694Z,101090
2018-05-25T19:34:13.180Z,101100
2018-05-25T19:39:16.281Z,101109
2018-05-25T19:44:20.716Z,101112
2018-05-25T19:49:24.935Z,101121
2018-05-25T19:54:29.383Z,101125
2018-05-25T19:59:33.231Z,101130
2018-05-25T20:04:36.710Z,101138
2018-05-25T20:09:39.806Z,101143
2018-05-25T20:14:43.655Z,101149
2018-05-25T20:19:46.741Z,101145
2018-05-25T20:24:50.976Z,101141
2018-05-25T20:29:54.454Z,101144
2018-05-25T20:34:57.944Z,101140
2018-05-25T20:40:01.031Z,101137
2018-05-25T20:45:04.121Z,101140
2018-05-25T20:50:07.977Z,101146
2018-05-25T20:55:11.845Z,101149
2018-05-25T21:00:15.692Z,101149
2018-05-25T21:05:18.802Z,101143
2018-05-25T21:10:21.894Z,101141
2018-05-25T21:15:26.333Z,101144
2018-05-25T21:20:30.777Z,101149
2018-05-25T21:25:33.870Z,101145
2018-05-25T21:30:38.467Z,101141
2018-05-25T21:35:41.554Z,101154
2018-05-25T21:40:45.409Z,101160
2018-05-25T21:45:49.998Z,101164
2018-05-25T21:50:54.228Z,101170
2018-05-25T21:55:58.670Z,101180
2018-05-25T22:01:01.759Z,101182
2018-05-25T22:06:06.827Z,101181
2018-05-25T22:11:09.915Z,101187
2018-05-25T22:16:13.391Z,101197
2018-05-25T22:21:16.485Z,101202
2018-05-25T22:26:19.615Z,101195
2018-05-25T22:31:24.168Z,101196
2018-05-25T22:36:27.249Z,101199
2018-05-25T22:41:30.333Z,101206
2018-05-25T22:46:52.688Z,101206
2018-05-25T22:52:09.029Z,101206
2018-05-25T22:57:12.111Z,101204
2018-05-25T23:02:15.593Z,101209
2018-05-25T23:07:18.699Z,101216
2018-05-25T23:12:23.950Z,101227
2018-05-25T23:17:28.187Z,101235
2018-05-25T23:22:31.667Z,101236
2018-05-25T23:27:36.105Z,101234
2018-05-25T23:32:40.693Z,101232
2018-05-25T23:37:44.547Z,101222
2018-05-25T23:42:47.643Z,101222
2018-05-25T23:47:52.234Z,101225
2018-05-25T23:52:55.718Z,101210
2018-05-25T23:58:00.162Z,101213
